aviador You're here:

OIAM Decoded Metar

BANDAR MAHSHAHR in IRAN
Report Time2018-01-16 07:00:00
UTC Time2018-01-16 07:17:27
Flight Rules vfr VFR
Wind310° at 18 kt
W.Decomp.*RWY 31: 18.0 kt HW 0.9 kt LCW
W.Rank310° ranks 2
Current wind is above 310° avg. (11.1)
Visibility9999 m
Phenomena:N/A
Clouds:N/A
Expected CloudBase > 3,600 ft AGL from Temp-Dew spread
CeilingNone
Temp15°C (ISA 0)
Dew Point06°C (55% RH)
AAT7.6°C
QNH1022 hPa
Density Alt-161 ft
Elevation13 ft
Report Wrong Elevation
Raw Report
METAR OIAM 160700Z 31018KT CAVOK 15/06 Q1022=

Extra information for OIAM:More info

Metar Taf Metar & Taf Last 4 Metars F.Rules Stats Wind Profile Meteogram Temp Stats Airport Information Weather charts Add Link Nearby VenuesMetar ALERT Operation Metar Decoded Social comments